sensor_id;sensor_type;location;lat;lon;timestamp;P1;durP1;ratioP1;P2;durP2;ratioP2
48859;SDS011;34679;51.436;-2.518;2023-05-31T00:00:03;7.38;;;3.60;;
48859;SDS011;34679;51.436;-2.518;2023-05-31T00:02:29;6.15;;;3.67;;
48859;SDS011;34679;51.436;-2.518;2023-05-31T00:04:55;7.28;;;3.20;;
48859;SDS011;34679;51.436;-2.518;2023-05-31T00:07:21;6.07;;;4.10;;
48859;SDS011;34679;51.436;-2.518;2023-05-31T00:09:47;6.65;;;3.38;;
48859;SDS011;34679;51.436;-2.518;2023-05-31T00:12:13;5.03;;;2.67;;
48859;SDS011;34679;51.436;-2.518;2023-05-31T00:14:42;5.07;;;3.20;;
48859;SDS011;34679;51.436;-2.518;2023-05-31T00:17:07;3.78;;;2.50;;
48859;SDS011;34679;51.436;-2.518;2023-05-31T00:19:33;5.45;;;3.20;;
48859;SDS011;34679;51.436;-2.518;2023-05-31T00:21:59;5.15;;;2.78;;
48859;SDS011;34679;51.436;-2.518;2023-05-31T00:24:24;5.15;;;3.45;;
48859;SDS011;34679;51.436;-2.518;2023-05-31T00:26:50;3.78;;;2.95;;
48859;SDS011;34679;51.436;-2.518;2023-05-31T00:29:16;4.75;;;2.20;;
48859;SDS011;34679;51.436;-2.518;2023-05-31T00:31:42;3.60;;;2.20;;
48859;SDS011;34679;51.436;-2.518;2023-05-31T00:34:07;6.55;;;2.05;;
48859;SDS011;34679;51.436;-2.518;2023-05-31T00:36:36;1.70;;;1.48;;
48859;SDS011;34679;51.436;-2.518;2023-05-31T00:39:01;2.83;;;1.70;;
48859;SDS011;34679;51.436;-2.518;2023-05-31T00:41:30;2.72;;;1.77;;
48859;SDS011;34679;51.436;-2.518;2023-05-31T00:43:56;3.47;;;1.20;;
48859;SDS011;34679;51.436;-2.518;2023-05-31T00:46:28;3.13;;;1.33;;
48859;SDS011;34679;51.436;-2.518;2023-05-31T00:48:57;1.23;;;1.13;;
48859;SDS011;34679;51.436;-2.518;2023-05-31T00:51:27;1.85;;;1.63;;
48859;SDS011;34679;51.436;-2.518;2023-05-31T00:53:54;1.98;;;1.20;;
48859;SDS011;34679;51.436;-2.518;2023-05-31T00:56:21;2.97;;;1.08;;
48859;SDS011;34679;51.436;-2.518;2023-05-31T00:58:48;1.63;;;1.05;;
48859;SDS011;34679;51.436;-2.518;2023-05-31T01:01:15;2.70;;;1.10;;
48859;SDS011;34679;51.436;-2.518;2023-05-31T01:03:42;2.42;;;1.20;;
48859;SDS011;34679;51.436;-2.518;2023-05-31T01:06:09;5.10;;;1.13;;
48859;SDS011;34679;51.436;-2.518;2023-05-31T01:08:42;1.15;;;1.05;;
48859;SDS011;34679;51.436;-2.518;2023-05-31T01:11:22;1.60;;;1.20;;
48859;SDS011;34679;51.436;-2.518;2023-05-31T01:17:41;1.02;;;0.70;;
48859;SDS011;34679;51.436;-2.518;2023-05-31T01:19:53;0.80;;;0.70;;
48859;SDS011;34679;51.436;-2.518;2023-05-31T01:22:24;1.90;;;1.05;;
48859;SDS011;34679;51.436;-2.518;2023-05-31T01:28:17;1.33;;;1.00;;
48859;SDS011;34679;51.436;-2.518;2023-05-31T01:30:44;1.20;;;1.00;;
48859;SDS011;34679;51.436;-2.518;2023-05-31T01:33:16;1.88;;;1.02;;
48859;SDS011;34679;51.436;-2.518;2023-05-31T01:35:43;0.82;;;0.80;;
48859;SDS011;34679;51.436;-2.518;2023-05-31T01:38:08;1.27;;;0.90;;
48859;SDS011;34679;51.436;-2.518;2023-05-31T01:40:35;2.05;;;0.68;;
48859;SDS011;34679;51.436;-2.518;2023-05-31T01:43:02;1.25;;;0.65;;
48859;SDS011;34679;51.436;-2.518;2023-05-31T01:45:29;0.77;;;0.40;;
48859;SDS011;34679;51.436;-2.518;2023-05-31T01:47:58;0.80;;;0.57;;
48859;SDS011;34679;51.436;-2.518;2023-05-31T01:50:29;1.85;;;0.73;;
48859;SDS011;34679;51.436;-2.518;2023-05-31T01:52:56;0.75;;;0.55;;
48859;SDS011;34679;51.436;-2.518;2023-05-31T01:55:22;0.50;;;0.50;;
48859;SDS011;34679;51.436;-2.518;2023-05-31T01:57:48;1.00;;;0.52;;
48859;SDS011;34679;51.436;-2.518;2023-05-31T02:00:16;0.70;;;0.60;;
48859;SDS011;34679;51.436;-2.518;2023-05-31T02:02:42;0.82;;;0.73;;
48859;SDS011;34679;51.436;-2.518;2023-05-31T02:05:09;0.82;;;0.57;;
48859;SDS011;34679;51.436;-2.518;2023-05-31T02:07:41;1.60;;;0.68;;
48859;SDS011;34679;51.436;-2.518;2023-05-31T02:10:09;0.50;;;0.40;;
48859;SDS011;34679;51.436;-2.518;2023-05-31T02:12:36;1.05;;;0.50;;
48859;SDS011;34679;51.436;-2.518;2023-05-31T02:15:02;2.20;;;0.60;;
48859;SDS011;34679;51.436;-2.518;2023-05-31T02:17:29;2.03;;;0.60;;
48859;SDS011;34679;51.436;-2.518;2023-05-31T02:19:58;1.65;;;0.50;;
48859;SDS011;34679;51.436;-2.518;2023-05-31T02:22:24;0.68;;;0.60;;
48859;SDS011;34679;51.436;-2.518;2023-05-31T02:24:50;1.27;;;0.80;;
48859;SDS011;34679;51.436;-2.518;2023-05-31T02:27:16;0.52;;;0.50;;
48859;SDS011;34679;51.436;-2.518;2023-05-31T02:29:44;1.05;;;0.52;;
48859;SDS011;34679;51.436;-2.518;2023-05-31T02:32:11;1.35;;;0.80;;
48859;SDS011;34679;51.436;-2.518;2023-05-31T02:34:36;1.02;;;0.50;;
48859;SDS011;34679;51.436;-2.518;2023-05-31T02:37:03;0.93;;;0.50;;
48859;SDS011;34679;51.436;-2.518;2023-05-31T02:39:29;0.50;;;0.50;;
48859;SDS011;34679;51.436;-2.518;2023-05-31T02:41:55;0.75;;;0.70;;
48859;SDS011;34679;51.436;-2.518;2023-05-31T02:44:20;0.98;;;0.65;;
48859;SDS011;34679;51.436;-2.518;2023-05-31T02:46:46;1.40;;;0.80;;
48859;SDS011;34679;51.436;-2.518;2023-05-31T02:49:12;1.88;;;0.80;;
48859;SDS011;34679;51.436;-2.518;2023-05-31T02:51:38;0.77;;;0.77;;
48859;SDS011;34679;51.436;-2.518;2023-05-31T02:54:04;1.05;;;0.70;;
48859;SDS011;34679;51.436;-2.518;2023-05-31T02:56:29;0.98;;;0.73;;
48859;SDS011;34679;51.436;-2.518;2023-05-31T02:58:55;0.85;;;0.82;;
48859;SDS011;34679;51.436;-2.518;2023-05-31T03:01:21;1.42;;;0.95;;
48859;SDS011;34679;51.436;-2.518;2023-05-31T03:03:47;1.50;;;0.88;;
48859;SDS011;34679;51.436;-2.518;2023-05-31T03:06:13;0.73;;;0.70;;
48859;SDS011;34679;51.436;-2.518;2023-05-31T03:08:42;0.68;;;0.68;;
48859;SDS011;34679;51.436;-2.518;2023-05-31T03:11:07;0.68;;;0.68;;
48859;SDS011;34679;51.436;-2.518;2023-05-31T03:13:36;1.38;;;0.80;;
48859;SDS011;34679;51.436;-2.518;2023-05-31T03:16:01;1.15;;;0.63;;
48859;SDS011;34679;51.436;-2.518;2023-05-31T03:18:27;1.13;;;0.73;;
48859;SDS011;34679;51.436;-2.518;2023-05-31T03:20:53;1.67;;;0.70;;
48859;SDS011;34679;51.436;-2.518;2023-05-31T03:23:19;0.60;;;0.60;;
48859;SDS011;34679;51.436;-2.518;2023-05-31T03:25:48;1.92;;;0.70;;
48859;SDS011;34679;51.436;-2.518;2023-05-31T03:28:14;1.52;;;0.68;;
48859;SDS011;34679;51.436;-2.518;2023-05-31T03:30:40;1.67;;;0.80;;
48859;SDS011;34679;51.436;-2.518;2023-05-31T03:33:05;1.73;;;0.98;;
48859;SDS011;34679;51.436;-2.518;2023-05-31T03:35:33;2.47;;;0.90;;
48859;SDS011;34679;51.436;-2.518;2023-05-31T03:37:58;1.38;;;0.77;;
48859;SDS011;34679;51.436;-2.518;2023-05-31T03:40:24;1.50;;;0.77;;
48859;SDS011;34679;51.436;-2.518;2023-05-31T03:42:50;0.77;;;0.77;;
48859;SDS011;34679;51.436;-2.518;2023-05-31T03:45:15;1.35;;;1.00;;
48859;SDS011;34679;51.436;-2.518;2023-05-31T03:47:41;1.42;;;0.85;;
48859;SDS011;34679;51.436;-2.518;2023-05-31T03:50:07;1.58;;;0.80;;
48859;SDS011;34679;51.436;-2.518;2023-05-31T03:52:34;7.25;;;0.80;;
48859;SDS011;34679;51.436;-2.518;2023-05-31T03:55:02;0.60;;;0.60;;
48859;SDS011;34679;51.436;-2.518;2023-05-31T03:57:28;1.75;;;0.70;;
48859;SDS011;34679;51.436;-2.518;2023-05-31T03:59:54;1.85;;;0.70;;
48859;SDS011;34679;51.436;-2.518;2023-05-31T04:02:20;0.70;;;0.50;;
48859;SDS011;34679;51.436;-2.518;2023-05-31T04:04:46;2.95;;;0.60;;
48859;SDS011;34679;51.436;-2.518;2023-05-31T04:07:12;2.35;;;0.82;;
48859;SDS011;34679;51.436;-2.518;2023-05-31T04:09:37;0.95;;;0.85;;
48859;SDS011;34679;51.436;-2.518;2023-05-31T04:12:03;1.50;;;1.08;;
48859;SDS011;34679;51.436;-2.518;2023-05-31T04:14:29;1.90;;;0.93;;
48859;SDS011;34679;51.436;-2.518;2023-05-31T04:16:55;1.90;;;0.70;;
48859;SDS011;34679;51.436;-2.518;2023-05-31T04:19:20;1.95;;;0.80;;
48859;SDS011;34679;51.436;-2.518;2023-05-31T04:21:46;2.65;;;0.80;;
48859;SDS011;34679;51.436;-2.518;2023-05-31T04:24:12;0.88;;;0.88;;
48859;SDS011;34679;51.436;-2.518;2023-05-31T04:26:37;1.48;;;0.68;;
48859;SDS011;34679;51.436;-2.518;2023-05-31T04:29:03;1.38;;;0.77;;
48859;SDS011;34679;51.436;-2.518;2023-05-31T04:31:29;1.70;;;0.68;;
48859;SDS011;34679;51.436;-2.518;2023-05-31T04:33:55;3.33;;;1.33;;
48859;SDS011;34679;51.436;-2.518;2023-05-31T04:36:25;0.70;;;0.70;;
48859;SDS011;34679;51.436;-2.518;2023-05-31T04:38:50;1.98;;;0.68;;
48859;SDS011;34679;51.436;-2.518;2023-05-31T04:41:20;1.02;;;0.82;;
48859;SDS011;34679;51.436;-2.518;2023-05-31T04:43:50;1.00;;;0.60;;
48859;SDS011;34679;51.436;-2.518;2023-05-31T04:46:17;1.38;;;0.93;;
48859;SDS011;34679;51.436;-2.518;2023-05-31T04:48:44;1.00;;;0.90;;
48859;SDS011;34679;51.436;-2.518;2023-05-31T04:51:13;2.72;;;0.88;;
48859;SDS011;34679;51.436;-2.518;2023-05-31T04:53:39;0.80;;;0.80;;
48859;SDS011;34679;51.436;-2.518;2023-05-31T04:56:08;2.17;;;0.93;;
48859;SDS011;34679;51.436;-2.518;2023-05-31T04:58:35;1.48;;;0.77;;
48859;SDS011;34679;51.436;-2.518;2023-05-31T05:01:00;0.57;;;0.57;;
48859;SDS011;34679;51.436;-2.518;2023-05-31T05:03:26;0.90;;;0.73;;
48859;SDS011;34679;51.436;-2.518;2023-05-31T05:05:53;1.02;;;0.93;;
48859;SDS011;34679;51.436;-2.518;2023-05-31T05:08:21;1.42;;;0.75;;
48859;SDS011;34679;51.436;-2.518;2023-05-31T05:10:47;1.08;;;0.95;;
48859;SDS011;34679;51.436;-2.518;2023-05-31T05:13:16;1.30;;;0.82;;
48859;SDS011;34679;51.436;-2.518;2023-05-31T05:15:41;3.05;;;1.13;;
48859;SDS011;34679;51.436;-2.518;2023-05-31T05:18:07;1.27;;;0.90;;
48859;SDS011;34679;51.436;-2.518;2023-05-31T05:20:34;1.60;;;1.02;;
48859;SDS011;34679;51.436;-2.518;2023-05-31T05:22:59;1.58;;;0.82;;
48859;SDS011;34679;51.436;-2.518;2023-05-31T05:25:27;1.40;;;0.98;;
48859;SDS011;34679;51.436;-2.518;2023-05-31T05:27:53;2.42;;;1.30;;
48859;SDS011;34679;51.436;-2.518;2023-05-31T05:30:21;0.65;;;0.65;;
48859;SDS011;34679;51.436;-2.518;2023-05-31T05:32:47;3.13;;;1.15;;
48859;SDS011;34679;51.436;-2.518;2023-05-31T05:35:13;1.98;;;1.58;;
48859;SDS011;34679;51.436;-2.518;2023-05-31T05:37:42;1.52;;;1.10;;
48859;SDS011;34679;51.436;-2.518;2023-05-31T05:40:08;1.27;;;1.10;;
48859;SDS011;34679;51.436;-2.518;2023-05-31T05:42:34;1.45;;;0.88;;
48859;SDS011;34679;51.436;-2.518;2023-05-31T05:45:02;1.08;;;0.93;;
48859;SDS011;34679;51.436;-2.518;2023-05-31T05:47:29;1.13;;;1.00;;
48859;SDS011;34679;51.436;-2.518;2023-05-31T05:49:55;1.48;;;1.05;;
48859;SDS011;34679;51.436;-2.518;2023-05-31T05:52:21;1.50;;;1.10;;
48859;SDS011;34679;51.436;-2.518;2023-05-31T05:54:47;1.45;;;1.27;;
48859;SDS011;34679;51.436;-2.518;2023-05-31T05:57:12;2.47;;;1.13;;
48859;SDS011;34679;51.436;-2.518;2023-05-31T05:59:38;1.40;;;1.20;;
48859;SDS011;34679;51.436;-2.518;2023-05-31T06:02:06;2.05;;;1.23;;
48859;SDS011;34679;51.436;-2.518;2023-05-31T06:04:31;1.30;;;1.20;;
48859;SDS011;34679;51.436;-2.518;2023-05-31T06:06:57;1.88;;;1.73;;
48859;SDS011;34679;51.436;-2.518;2023-05-31T06:09:23;1.23;;;1.10;;
48859;SDS011;34679;51.436;-2.518;2023-05-31T06:11:48;1.23;;;0.90;;
48859;SDS011;34679;51.436;-2.518;2023-05-31T06:14:14;2.88;;;1.02;;
48859;SDS011;34679;51.436;-2.518;2023-05-31T06:16:40;1.15;;;1.05;;
48859;SDS011;34679;51.436;-2.518;2023-05-31T06:19:06;1.33;;;0.90;;
48859;SDS011;34679;51.436;-2.518;2023-05-31T06:21:31;2.38;;;1.05;;
48859;SDS011;34679;51.436;-2.518;2023-05-31T06:23:57;2.35;;;0.80;;
48859;SDS011;34679;51.436;-2.518;2023-05-31T06:26:23;4.32;;;0.80;;
48859;SDS011;34679;51.436;-2.518;2023-05-31T06:28:49;1.13;;;0.90;;
48859;SDS011;34679;51.436;-2.518;2023-05-31T06:31:15;1.20;;;0.90;;
48859;SDS011;34679;51.436;-2.518;2023-05-31T06:33:41;1.00;;;0.50;;
48859;SDS011;34679;51.436;-2.518;2023-05-31T06:36:07;1.27;;;0.63;;
48859;SDS011;34679;51.436;-2.518;2023-05-31T06:38:33;1.08;;;0.68;;
48859;SDS011;34679;51.436;-2.518;2023-05-31T06:40:58;0.73;;;0.38;;
48859;SDS011;34679;51.436;-2.518;2023-05-31T06:43:24;0.73;;;0.30;;
48859;SDS011;34679;51.436;-2.518;2023-05-31T06:45:50;0.85;;;0.40;;
48859;SDS011;34679;51.436;-2.518;2023-05-31T06:48:16;2.35;;;0.40;;
48859;SDS011;34679;51.436;-2.518;2023-05-31T06:50:41;1.45;;;0.47;;
48859;SDS011;34679;51.436;-2.518;2023-05-31T06:53:08;0.50;;;0.50;;
48859;SDS011;34679;51.436;-2.518;2023-05-31T06:55:34;0.40;;;0.40;;
48859;SDS011;34679;51.436;-2.518;2023-05-31T06:58:00;0.73;;;0.30;;
48859;SDS011;34679;51.436;-2.518;2023-05-31T07:00:27;0.55;;;0.55;;
48859;SDS011;34679;51.436;-2.518;2023-05-31T07:02:53;1.00;;;0.73;;
48859;SDS011;34679;51.436;-2.518;2023-05-31T07:05:19;0.47;;;0.40;;
48859;SDS011;34679;51.436;-2.518;2023-05-31T07:07:44;1.67;;;0.40;;
48859;SDS011;34679;51.436;-2.518;2023-05-31T07:10:10;1.02;;;0.40;;
48859;SDS011;34679;51.436;-2.518;2023-05-31T07:12:36;0.70;;;0.25;;
48859;SDS011;34679;51.436;-2.518;2023-05-31T07:15:01;0.50;;;0.50;;
48859;SDS011;34679;51.436;-2.518;2023-05-31T07:17:27;1.33;;;0.70;;
48859;SDS011;34679;51.436;-2.518;2023-05-31T07:19:54;0.40;;;0.40;;
48859;SDS011;34679;51.436;-2.518;2023-05-31T07:22:20;2.33;;;0.50;;
48859;SDS011;34679;51.436;-2.518;2023-05-31T07:24:47;1.13;;;0.68;;
48859;SDS011;34679;51.436;-2.518;2023-05-31T07:27:13;2.65;;;1.13;;
48859;SDS011;34679;51.436;-2.518;2023-05-31T07:29:39;1.05;;;0.70;;
48859;SDS011;34679;51.436;-2.518;2023-05-31T07:32:05;0.75;;;0.57;;
48859;SDS011;34679;51.436;-2.518;2023-05-31T07:34:31;0.50;;;0.50;;
48859;SDS011;34679;51.436;-2.518;2023-05-31T07:36:57;2.88;;;0.50;;
48859;SDS011;34679;51.436;-2.518;2023-05-31T07:39:23;0.50;;;0.50;;
48859;SDS011;34679;51.436;-2.518;2023-05-31T07:41:48;0.82;;;0.60;;
48859;SDS011;34679;51.436;-2.518;2023-05-31T07:44:14;3.55;;;0.50;;
48859;SDS011;34679;51.436;-2.518;2023-05-31T07:46:42;0.73;;;0.47;;
48859;SDS011;34679;51.436;-2.518;2023-05-31T07:49:07;0.50;;;0.50;;
48859;SDS011;34679;51.436;-2.518;2023-05-31T07:51:33;1.02;;;0.55;;
48859;SDS011;34679;51.436;-2.518;2023-05-31T07:53:59;0.90;;;0.57;;
48859;SDS011;34679;51.436;-2.518;2023-05-31T07:56:25;2.70;;;0.68;;
48859;SDS011;34679;51.436;-2.518;2023-05-31T07:58:50;2.28;;;0.50;;
48859;SDS011;34679;51.436;-2.518;2023-05-31T08:01:16;1.35;;;0.60;;
48859;SDS011;34679;51.436;-2.518;2023-05-31T08:03:42;0.30;;;0.30;;
48859;SDS011;34679;51.436;-2.518;2023-05-31T08:06:08;0.40;;;0.40;;
48859;SDS011;34679;51.436;-2.518;2023-05-31T08:08:34;0.40;;;0.40;;
48859;SDS011;34679;51.436;-2.518;2023-05-31T08:11:00;0.60;;;0.50;;
48859;SDS011;34679;51.436;-2.518;2023-05-31T08:13:26;2.67;;;0.77;;
48859;SDS011;34679;51.436;-2.518;2023-05-31T08:15:53;0.30;;;0.30;;
48859;SDS011;34679;51.436;-2.518;2023-05-31T08:18:20;2.00;;;0.45;;
48859;SDS011;34679;51.436;-2.518;2023-05-31T08:20:46;1.15;;;0.50;;
48859;SDS011;34679;51.436;-2.518;2023-05-31T08:23:18;0.95;;;0.38;;
48859;SDS011;34679;51.436;-2.518;2023-05-31T08:25:45;3.10;;;0.75;;
48859;SDS011;34679;51.436;-2.518;2023-05-31T08:28:12;1.80;;;0.57;;
48859;SDS011;34679;51.436;-2.518;2023-05-31T08:30:37;0.55;;;0.50;;
48859;SDS011;34679;51.436;-2.518;2023-05-31T08:33:03;1.38;;;0.55;;
48859;SDS011;34679;51.436;-2.518;2023-05-31T08:35:29;0.52;;;0.52;;
48859;SDS011;34679;51.436;-2.518;2023-05-31T08:37:55;0.50;;;0.50;;
48859;SDS011;34679;51.436;-2.518;2023-05-31T08:40:21;0.77;;;0.70;;
48859;SDS011;34679;51.436;-2.518;2023-05-31T08:42:51;0.88;;;0.50;;
48859;SDS011;34679;51.436;-2.518;2023-05-31T08:45:17;5.03;;;0.50;;
48859;SDS011;34679;51.436;-2.518;2023-05-31T08:47:44;0.88;;;0.60;;
48859;SDS011;34679;51.436;-2.518;2023-05-31T08:50:14;0.50;;;0.50;;
48859;SDS011;34679;51.436;-2.518;2023-05-31T08:52:42;0.93;;;0.70;;
48859;SDS011;34679;51.436;-2.518;2023-05-31T08:55:10;1.58;;;0.70;;
48859;SDS011;34679;51.436;-2.518;2023-05-31T08:57:37;3.25;;;0.70;;
48859;SDS011;34679;51.436;-2.518;2023-05-31T09:00:04;0.68;;;0.60;;
48859;SDS011;34679;51.436;-2.518;2023-05-31T09:02:39;4.53;;;0.80;;
48859;SDS011;34679;51.436;-2.518;2023-05-31T09:05:06;0.50;;;0.50;;
48859;SDS011;34679;51.436;-2.518;2023-05-31T09:07:36;1.23;;;0.52;;
48859;SDS011;34679;51.436;-2.518;2023-05-31T09:10:02;3.65;;;0.88;;
48859;SDS011;34679;51.436;-2.518;2023-05-31T09:12:30;0.73;;;0.60;;
48859;SDS011;34679;51.436;-2.518;2023-05-31T09:14:56;1.65;;;0.63;;
48859;SDS011;34679;51.436;-2.518;2023-05-31T09:17:22;0.73;;;0.50;;
48859;SDS011;34679;51.436;-2.518;2023-05-31T09:19:49;1.98;;;0.60;;
48859;SDS011;34679;51.436;-2.518;2023-05-31T09:22:16;1.30;;;0.52;;
48859;SDS011;34679;51.436;-2.518;2023-05-31T09:24:48;0.98;;;0.52;;
48859;SDS011;34679;51.436;-2.518;2023-05-31T09:27:16;0.40;;;0.40;;
48859;SDS011;34679;51.436;-2.518;2023-05-31T09:29:42;0.60;;;0.47;;
48859;SDS011;34679;51.436;-2.518;2023-05-31T09:32:08;2.10;;;0.52;;
48859;SDS011;34679;51.436;-2.518;2023-05-31T09:34:35;0.85;;;0.60;;
48859;SDS011;34679;51.436;-2.518;2023-05-31T09:37:01;0.60;;;0.30;;
48859;SDS011;34679;51.436;-2.518;2023-05-31T09:39:27;0.95;;;0.40;;
48859;SDS011;34679;51.436;-2.518;2023-05-31T09:41:53;1.88;;;0.73;;
48859;SDS011;34679;51.436;-2.518;2023-05-31T09:44:20;1.08;;;0.70;;
48859;SDS011;34679;51.436;-2.518;2023-05-31T09:46:52;1.38;;;0.55;;
48859;SDS011;34679;51.436;-2.518;2023-05-31T09:49:17;1.55;;;0.70;;
48859;SDS011;34679;51.436;-2.518;2023-05-31T09:51:51;1.23;;;0.63;;
48859;SDS011;34679;51.436;-2.518;2023-05-31T09:54:17;0.95;;;0.50;;
48859;SDS011;34679;51.436;-2.518;2023-05-31T09:56:47;0.70;;;0.50;;
48859;SDS011;34679;51.436;-2.518;2023-05-31T09:59:14;1.40;;;0.70;;
48859;SDS011;34679;51.436;-2.518;2023-05-31T10:01:40;2.22;;;0.80;;
48859;SDS011;34679;51.436;-2.518;2023-05-31T10:04:06;1.23;;;0.70;;
48859;SDS011;34679;51.436;-2.518;2023-05-31T10:06:32;1.33;;;0.70;;
48859;SDS011;34679;51.436;-2.518;2023-05-31T10:09:04;2.15;;;0.65;;
48859;SDS011;34679;51.436;-2.518;2023-05-31T10:11:35;0.60;;;0.52;;
48859;SDS011;34679;51.436;-2.518;2023-05-31T10:14:02;0.80;;;0.60;;
48859;SDS011;34679;51.436;-2.518;2023-05-31T10:16:35;0.95;;;0.88;;
48859;SDS011;34679;51.436;-2.518;2023-05-31T10:19:15;0.98;;;0.60;;
48859;SDS011;34679;51.436;-2.518;2023-05-31T10:21:49;1.33;;;0.75;;
48859;SDS011;34679;51.436;-2.518;2023-05-31T10:25:00;1.10;;;0.80;;
48859;SDS011;34679;51.436;-2.518;2023-05-31T10:27:08;1.50;;;0.70;;
48859;SDS011;34679;51.436;-2.518;2023-05-31T10:29:45;1.48;;;0.90;;
48859;SDS011;34679;51.436;-2.518;2023-05-31T10:32:16;3.50;;;0.80;;
48859;SDS011;34679;51.436;-2.518;2023-05-31T10:34:54;1.05;;;0.95;;
48859;SDS011;34679;51.436;-2.518;2023-05-31T10:37:21;4.45;;;0.88;;
48859;SDS011;34679;51.436;-2.518;2023-05-31T10:45:54;2.08;;;0.85;;
48859;SDS011;34679;51.436;-2.518;2023-05-31T10:51:15;1.67;;;1.20;;
48859;SDS011;34679;51.436;-2.518;2023-05-31T10:53:41;9.95;;;1.38;;
48859;SDS011;34679;51.436;-2.518;2023-05-31T10:56:10;2.83;;;1.20;;
48859;SDS011;34679;51.436;-2.518;2023-05-31T10:58:39;1.10;;;1.10;;
48859;SDS011;34679;51.436;-2.518;2023-05-31T11:01:12;1.52;;;1.38;;
48859;SDS011;34679;51.436;-2.518;2023-05-31T11:03:44;7.38;;;1.65;;
48859;SDS011;34679;51.436;-2.518;2023-05-31T11:06:12;1.65;;;1.02;;
48859;SDS011;34679;51.436;-2.518;2023-05-31T11:14:07;6.03;;;1.23;;
48859;SDS011;34679;51.436;-2.518;2023-05-31T11:17:11;2.17;;;1.15;;
48859;SDS011;34679;51.436;-2.518;2023-05-31T11:19:38;2.35;;;1.40;;
48859;SDS011;34679;51.436;-2.518;2023-05-31T11:22:06;3.63;;;1.00;;
48859;SDS011;34679;51.436;-2.518;2023-05-31T11:24:47;2.35;;;1.00;;
48859;SDS011;34679;51.436;-2.518;2023-05-31T11:27:18;1.23;;;0.80;;
48859;SDS011;34679;51.436;-2.518;2023-05-31T11:32:20;4.30;;;1.45;;
48859;SDS011;34679;51.436;-2.518;2023-05-31T11:34:58;3.60;;;1.77;;
48859;SDS011;34679;51.436;-2.518;2023-05-31T11:37:34;7.05;;;1.50;;
48859;SDS011;34679;51.436;-2.518;2023-05-31T11:40:06;2.70;;;1.55;;
48859;SDS011;34679;51.436;-2.518;2023-05-31T11:42:44;1.52;;;1.40;;
48859;SDS011;34679;51.436;-2.518;2023-05-31T11:45:11;8.82;;;1.83;;
48859;SDS011;34679;51.436;-2.518;2023-05-31T11:50:10;2.83;;;2.10;;
48859;SDS011;34679;51.436;-2.518;2023-05-31T11:52:41;2.85;;;1.90;;
48859;SDS011;34679;51.436;-2.518;2023-05-31T11:55:07;2.47;;;1.85;;
48859;SDS011;34679;51.436;-2.518;2023-05-31T11:57:44;3.20;;;2.20;;
48859;SDS011;34679;51.436;-2.518;2023-05-31T12:00:14;3.15;;;2.20;;
48859;SDS011;34679;51.436;-2.518;2023-05-31T12:02:42;4.30;;;2.17;;
48859;SDS011;34679;51.436;-2.518;2023-05-31T12:05:12;3.53;;;1.38;;
48859;SDS011;34679;51.436;-2.518;2023-05-31T12:07:38;3.95;;;1.85;;
48859;SDS011;34679;51.436;-2.518;2023-05-31T12:10:04;5.75;;;1.75;;
48859;SDS011;34679;51.436;-2.518;2023-05-31T12:12:32;3.90;;;2.00;;
48859;SDS011;34679;51.436;-2.518;2023-05-31T12:14:58;2.33;;;1.92;;
48859;SDS011;34679;51.436;-2.518;2023-05-31T12:17:29;3.60;;;1.60;;
48859;SDS011;34679;51.436;-2.518;2023-05-31T12:19:55;4.97;;;1.73;;
48859;SDS011;34679;51.436;-2.518;2023-05-31T12:22:21;2.25;;;1.85;;
48859;SDS011;34679;51.436;-2.518;2023-05-31T12:24:50;1.75;;;1.63;;
48859;SDS011;34679;51.436;-2.518;2023-05-31T12:27:24;2.90;;;1.60;;
48859;SDS011;34679;51.436;-2.518;2023-05-31T12:29:58;1.60;;;1.42;;
48859;SDS011;34679;51.436;-2.518;2023-05-31T12:32:27;1.83;;;1.60;;
48859;SDS011;34679;51.436;-2.518;2023-05-31T12:35:15;3.78;;;1.30;;
48859;SDS011;34679;51.436;-2.518;2023-05-31T12:37:39;2.85;;;1.83;;
48859;SDS011;34679;51.436;-2.518;2023-05-31T12:40:09;3.22;;;1.20;;
48859;SDS011;34679;51.436;-2.518;2023-05-31T12:42:43;1.63;;;1.40;;
48859;SDS011;34679;51.436;-2.518;2023-05-31T12:45:09;1.60;;;1.50;;
48859;SDS011;34679;51.436;-2.518;2023-05-31T12:47:35;2.17;;;1.38;;
48859;SDS011;34679;51.436;-2.518;2023-05-31T12:50:05;2.33;;;1.58;;
48859;SDS011;34679;51.436;-2.518;2023-05-31T12:52:35;4.00;;;1.40;;
48859;SDS011;34679;51.436;-2.518;2023-05-31T12:55:05;3.97;;;1.95;;
48859;SDS011;34679;51.436;-2.518;2023-05-31T12:57:32;3.45;;;1.60;;
48859;SDS011;34679;51.436;-2.518;2023-05-31T12:59:58;2.92;;;2.00;;
48859;SDS011;34679;51.436;-2.518;2023-05-31T13:02:30;3.95;;;1.50;;
48859;SDS011;34679;51.436;-2.518;2023-05-31T13:04:56;1.95;;;1.70;;
48859;SDS011;34679;51.436;-2.518;2023-05-31T13:07:22;3.35;;;1.63;;
48859;SDS011;34679;51.436;-2.518;2023-05-31T13:09:48;3.42;;;1.30;;
48859;SDS011;34679;51.436;-2.518;2023-05-31T13:12:13;3.85;;;1.88;;
48859;SDS011;34679;51.436;-2.518;2023-05-31T13:14:39;7.88;;;1.65;;
48859;SDS011;34679;51.436;-2.518;2023-05-31T13:17:05;3.33;;;1.52;;
48859;SDS011;34679;51.436;-2.518;2023-05-31T13:19:31;4.38;;;1.35;;
48859;SDS011;34679;51.436;-2.518;2023-05-31T13:21:57;5.00;;;2.38;;
48859;SDS011;34679;51.436;-2.518;2023-05-31T13:24:23;5.53;;;2.10;;
48859;SDS011;34679;51.436;-2.518;2023-05-31T13:26:48;3.83;;;2.42;;
48859;SDS011;34679;51.436;-2.518;2023-05-31T13:29:14;5.30;;;1.90;;
48859;SDS011;34679;51.436;-2.518;2023-05-31T13:31:41;3.63;;;2.15;;
48859;SDS011;34679;51.436;-2.518;2023-05-31T13:34:08;4.22;;;1.90;;
48859;SDS011;34679;51.436;-2.518;2023-05-31T13:36:33;3.38;;;1.90;;
48859;SDS011;34679;51.436;-2.518;2023-05-31T13:38:59;3.40;;;2.33;;
48859;SDS011;34679;51.436;-2.518;2023-05-31T13:41:25;3.58;;;1.95;;
48859;SDS011;34679;51.436;-2.518;2023-05-31T13:43:51;4.15;;;1.85;;
48859;SDS011;34679;51.436;-2.518;2023-05-31T13:46:17;7.05;;;1.90;;
48859;SDS011;34679;51.436;-2.518;2023-05-31T13:48:43;7.45;;;2.30;;
48859;SDS011;34679;51.436;-2.518;2023-05-31T13:51:09;5.75;;;2.10;;
48859;SDS011;34679;51.436;-2.518;2023-05-31T13:53:37;4.13;;;3.13;;
48859;SDS011;34679;51.436;-2.518;2023-05-31T13:56:03;4.63;;;2.10;;
48859;SDS011;34679;51.436;-2.518;2023-05-31T13:58:33;4.20;;;2.05;;
48859;SDS011;34679;51.436;-2.518;2023-05-31T14:01:00;3.95;;;2.38;;
48859;SDS011;34679;51.436;-2.518;2023-05-31T14:03:25;7.03;;;2.28;;
48859;SDS011;34679;51.436;-2.518;2023-05-31T14:05:51;5.15;;;3.25;;
48859;SDS011;34679;51.436;-2.518;2023-05-31T14:08:17;2.70;;;2.05;;
48859;SDS011;34679;51.436;-2.518;2023-05-31T14:10:43;4.57;;;3.00;;
48859;SDS011;34679;51.436;-2.518;2023-05-31T14:13:08;4.43;;;2.88;;
48859;SDS011;34679;51.436;-2.518;2023-05-31T14:15:35;6.82;;;2.40;;
48859;SDS011;34679;51.436;-2.518;2023-05-31T14:18:01;7.63;;;2.97;;
48859;SDS011;34679;51.436;-2.518;2023-05-31T14:20:27;4.57;;;3.03;;
48859;SDS011;34679;51.436;-2.518;2023-05-31T14:22:53;4.15;;;2.70;;
48859;SDS011;34679;51.436;-2.518;2023-05-31T14:25:19;5.43;;;2.53;;
48859;SDS011;34679;51.436;-2.518;2023-05-31T14:27:44;8.40;;;2.17;;
48859;SDS011;34679;51.436;-2.518;2023-05-31T14:30:10;5.15;;;3.40;;
48859;SDS011;34679;51.436;-2.518;2023-05-31T14:32:36;5.65;;;2.17;;
48859;SDS011;34679;51.436;-2.518;2023-05-31T14:35:02;8.45;;;2.40;;
48859;SDS011;34679;51.436;-2.518;2023-05-31T14:37:28;4.53;;;2.75;;
48859;SDS011;34679;51.436;-2.518;2023-05-31T14:39:54;2.88;;;2.20;;
48859;SDS011;34679;51.436;-2.518;2023-05-31T14:42:19;4.60;;;2.70;;
48859;SDS011;34679;51.436;-2.518;2023-05-31T14:44:46;4.90;;;2.67;;
48859;SDS011;34679;51.436;-2.518;2023-05-31T14:47:12;2.65;;;2.28;;
48859;SDS011;34679;51.436;-2.518;2023-05-31T14:49:38;7.15;;;2.40;;
48859;SDS011;34679;51.436;-2.518;2023-05-31T14:52:03;6.18;;;2.50;;
48859;SDS011;34679;51.436;-2.518;2023-05-31T14:54:32;5.13;;;2.40;;
48859;SDS011;34679;51.436;-2.518;2023-05-31T14:56:58;5.63;;;2.30;;
48859;SDS011;34679;51.436;-2.518;2023-05-31T14:59:24;5.95;;;2.63;;